Terminal Aerodrome Forecast
Issued by NWS

Home | Current Version | Previous Version | Text Only | Print | Product List | Glossary On
Versions: 1 2 3 4 5 6 7 8 9 10 11 12 13 14
000
FTUS46 KPDT 062320
TAFYKM
TAF
KYKM 062320Z 0700/0724 02012G22KT P6SM SCT100 SCT250
     FM070400 02008KT P6SM SCT250
     FM070800 30008KT P6SM SCT250
     FM071500 36012KT P6SM SCT250=

USA.gov is the U.S. government's official web portal to all federal, state and local government web resources and services.